Time,TemperatureF,DewpointF,PressureIn,WindDirection,WindDirectionDegrees,WindSpeedMPH,WindSpeedGustMPH,Humidity,HourlyPrecipIn,Conditions,Clouds,dailyrainin,SolarRadiationWatts/m^2,SoftwareType,DateUTC
2013-10-17 00:02:00,46.0,37.0,-100.00,North,349,0.0,2.0,70,0.00,,,0.00,0.000000,,2013-10-17 07:02:00,
2013-10-17 00:11:00,46.0,37.0,-100.00,North,349,0.0,2.0,70,0.00,,,0.00,0.000000,,2013-10-17 07:11:00,
2013-10-17 00:22:00,46.0,37.0,-100.00,North,349,0.0,2.0,70,0.00,,,0.00,0.000000,,2013-10-17 07:22:00,
2013-10-17 00:52:00,44.0,38.0,-100.00,NNW,345,1.0,5.0,79,0.00,,,0.00,0.000000,,2013-10-17 07:52:00,
2013-10-17 01:02:00,44.0,38.0,-100.00,NNW,345,1.0,5.0,79,0.00,,,0.00,0.000000,,2013-10-17 08:02:00,
2013-10-17 01:11:00,44.0,38.0,-100.00,NNW,345,1.0,5.0,79,0.00,,,0.00,0.000000,,2013-10-17 08:11:00,
2013-10-17 01:21:00,44.0,38.0,-100.00,NNW,345,1.0,5.0,79,0.00,,,0.00,0.000000,,2013-10-17 08:21:00,
2013-10-17 01:52:00,45.0,36.0,-100.00,NW,316,4.0,8.0,70,0.00,,,0.00,0.000000,,2013-10-17 08:52:00,
2013-10-17 02:02:00,45.0,36.0,-100.00,NW,316,4.0,8.0,70,0.00,,,0.00,0.000000,,2013-10-17 09:02:00,
2013-10-17 02:11:00,45.0,36.0,-100.00,NW,316,4.0,8.0,70,0.00,,,0.00,0.000000,,2013-10-17 09:11:00,
2013-10-17 02:21:00,45.0,36.0,-100.00,NW,316,4.0,8.0,70,0.00,,,0.00,0.000000,,2013-10-17 09:21:00,
2013-10-17 02:53:00,42.0,37.0,-100.00,WNW,301,0.0,3.0,82,0.00,,,0.00,0.000000,,2013-10-17 09:53:00,
2013-10-17 03:03:00,42.0,37.0,-100.00,WNW,301,0.0,3.0,82,0.00,,,0.00,0.000000,,2013-10-17 10:03:00,
2013-10-17 03:12:00,42.0,37.0,-100.00,WNW,301,0.0,3.0,82,0.00,,,0.00,0.000000,,2013-10-17 10:12:00,
2013-10-17 03:23:00,42.0,37.0,-100.00,WNW,301,0.0,3.0,82,0.00,,,0.00,0.000000,,2013-10-17 10:23:00,
2013-10-17 03:53:00,41.0,35.0,-100.00,East,87,1.0,4.0,80,0.00,,,0.00,0.000000,,2013-10-17 10:53:00,
2013-10-17 04:02:00,41.0,35.0,-100.00,East,87,1.0,4.0,80,0.00,,,0.00,0.000000,,2013-10-17 11:02:00,
2013-10-17 04:11:00,41.0,35.0,-100.00,East,87,1.0,4.0,80,0.00,,,0.00,0.000000,,2013-10-17 11:11:00,
2013-10-17 04:22:00,41.0,35.0,-100.00,East,87,1.0,4.0,80,0.00,,,0.00,0.000000,,2013-10-17 11:22:00,
2013-10-17 05:12:00,44.0,35.0,-100.00,NW,314,0.0,8.0,70,0.00,,,0.00,0.000000,,2013-10-17 12:12:00,
2013-10-17 06:11:00,38.0,34.0,-100.00,NNE,14,1.0,6.0,85,0.00,,,0.00,0.000000,,2013-10-17 13:11:00,
2013-10-17 06:21:00,38.0,34.0,-100.00,NNE,14,1.0,6.0,85,0.00,,,0.00,0.000000,,2013-10-17 13:21:00,
2013-10-17 06:52:00,39.0,35.0,-100.00,NW,315,0.0,3.0,84,0.00,,,0.00,0.000000,,2013-10-17 13:52:00,
2013-10-17 07:02:00,39.0,35.0,-100.00,NW,315,0.0,3.0,84,0.00,,,0.00,0.000000,,2013-10-17 14:02:00,
2013-10-17 07:11:00,39.0,35.0,-100.00,NW,315,0.0,3.0,84,0.00,,,0.00,0.000000,,2013-10-17 14:11:00,
2013-10-17 07:21:00,39.0,35.0,-100.00,NW,315,0.0,3.0,84,0.00,,,0.00,0.000000,,2013-10-17 14:21:00,
2013-10-17 07:52:00,37.0,34.0,-100.00,NNE,29,1.0,3.0,88,0.00,,,0.00,2.000000,,2013-10-17 14:52:00,
2013-10-17 08:02:00,37.0,34.0,-100.00,NNE,29,1.0,3.0,88,0.00,,,0.00,2.000000,,2013-10-17 15:02:00,
2013-10-17 08:11:00,37.0,34.0,-100.00,NNE,29,1.0,3.0,88,0.00,,,0.00,2.000000,,2013-10-17 15:11:00,
2013-10-17 08:22:00,37.0,34.0,-100.00,NNE,29,1.0,3.0,88,0.00,,,0.00,2.000000,,2013-10-17 15:22:00,
2013-10-17 09:53:00,47.0,38.0,-100.00,ENE,69,2.0,4.0,71,0.00,,,0.00,267.000000,,2013-10-17 16:53:00,
2013-10-17 10:02:00,47.0,38.0,-100.00,ENE,69,2.0,4.0,71,0.00,,,0.00,267.000000,,2013-10-17 17:02:00,
2013-10-17 10:12:00,47.0,38.0,-100.00,ENE,69,2.0,4.0,71,0.00,,,0.00,267.000000,,2013-10-17 17:12:00,
2013-10-17 10:21:00,47.0,38.0,-100.00,ENE,69,2.0,4.0,71,0.00,,,0.00,267.000000,,2013-10-17 17:21:00,
2013-10-17 10:53:00,54.0,41.0,-100.00,West,261,1.0,5.0,61,0.00,,,0.00,424.000000,,2013-10-17 17:53:00,
2013-10-17 11:02:00,54.0,41.0,-100.00,West,261,1.0,5.0,61,0.00,,,0.00,424.000000,,2013-10-17 18:02:00,
2013-10-17 11:11:00,54.0,41.0,-100.00,West,261,1.0,5.0,61,0.00,,,0.00,424.000000,,2013-10-17 18:11:00,
2013-10-17 11:21:00,54.0,41.0,-100.00,West,261,1.0,5.0,61,0.00,,,0.00,424.000000,,2013-10-17 18:21:00,
2013-10-17 12:11:00,58.0,40.0,-100.00,SE,130,3.0,6.0,51,0.00,,,0.00,541.000000,,2013-10-17 19:11:00,
2013-10-17 12:21:00,58.0,40.0,-100.00,SE,130,3.0,6.0,51,0.00,,,0.00,541.000000,,2013-10-17 19:21:00,
2013-10-17 12:53:00,61.0,36.0,-100.00,North,5,4.0,11.0,40,0.00,,,0.00,607.000000,,2013-10-17 19:53:00,
2013-10-17 13:02:00,61.0,36.0,-100.00,North,5,4.0,11.0,40,0.00,,,0.00,607.000000,,2013-10-17 20:02:00,
2013-10-17 13:11:00,61.0,36.0,-100.00,North,5,4.0,11.0,40,0.00,,,0.00,607.000000,,2013-10-17 20:11:00,
2013-10-17 13:22:00,61.0,36.0,-100.00,North,5,4.0,11.0,40,0.00,,,0.00,607.000000,,2013-10-17 20:22:00,
2013-10-17 14:11:00,63.0,36.0,-100.00,North,350,5.0,11.0,36,0.00,,,0.00,614.000000,,2013-10-17 21:11:00,
2013-10-17 14:21:00,63.0,36.0,-100.00,North,350,5.0,11.0,36,0.00,,,0.00,614.000000,,2013-10-17 21:21:00,
2013-10-17 14:54:00,66.0,36.0,-100.00,WNW,300,4.0,10.0,33,0.00,,,0.00,560.000000,,2013-10-17 21:54:00,
2013-10-17 15:04:00,66.0,36.0,-100.00,WNW,300,4.0,10.0,33,0.00,,,0.00,560.000000,,2013-10-17 22:04:00,
2013-10-17 15:13:00,66.0,36.0,-100.00,WNW,300,4.0,10.0,33,0.00,,,0.00,560.000000,,2013-10-17 22:13:00,
2013-10-17 15:24:00,66.0,36.0,-100.00,WNW,300,4.0,10.0,33,0.00,,,0.00,560.000000,,2013-10-17 22:24:00,
2013-10-17 15:53:00,67.0,35.0,-100.00,NNE,26,2.0,10.0,31,0.00,,,0.00,451.000000,,2013-10-17 22:53:00,
2013-10-17 16:03:00,67.0,35.0,-100.00,NNE,26,2.0,10.0,31,0.00,,,0.00,451.000000,,2013-10-17 23:03:00,
2013-10-17 16:13:00,67.0,35.0,-100.00,NNE,26,2.0,10.0,31,0.00,,,0.00,451.000000,,2013-10-17 23:13:00,
2013-10-17 16:22:00,67.0,35.0,-100.00,NNE,26,2.0,10.0,31,0.00,,,0.00,451.000000,,2013-10-17 23:22:00,
2013-10-17 16:53:00,67.0,35.0,-100.00,WSW,248,4.0,12.0,31,0.00,,,0.00,306.000000,,2013-10-17 23:53:00,
2013-10-17 17:02:00,67.0,35.0,-100.00,WSW,248,4.0,12.0,31,0.00,,,0.00,306.000000,,2013-10-18 00:02:00,
2013-10-17 17:12:00,67.0,35.0,-100.00,WSW,248,4.0,12.0,31,0.00,,,0.00,306.000000,,2013-10-18 00:12:00,
2013-10-17 17:22:00,67.0,35.0,-100.00,WSW,248,4.0,12.0,31,0.00,,,0.00,306.000000,,2013-10-18 00:22:00,
2013-10-17 17:53:00,65.0,34.0,-100.00,North,11,1.0,5.0,32,0.00,,,0.00,143.000000,,2013-10-18 00:53:00,
2013-10-17 18:02:00,65.0,34.0,-100.00,North,11,1.0,5.0,32,0.00,,,0.00,143.000000,,2013-10-18 01:02:00,
2013-10-17 18:12:00,65.0,34.0,-100.00,North,11,1.0,5.0,32,0.00,,,0.00,143.000000,,2013-10-18 01:12:00,
2013-10-17 18:21:00,65.0,34.0,-100.00,North,11,1.0,5.0,32,0.00,,,0.00,143.000000,,2013-10-18 01:21:00,
2013-10-17 19:22:00,52.0,35.0,-100.00,NNE,26,4.0,5.0,52,0.00,,,0.00,15.000000,,2013-10-18 02:22:00,
2013-10-17 19:52:00,50.0,35.0,-100.00,NNE,25,3.0,4.0,57,0.00,,,0.00,0.000000,,2013-10-18 02:52:00,
2013-10-17 20:03:00,50.0,35.0,-100.00,NNE,25,3.0,4.0,57,0.00,,,0.00,0.000000,,2013-10-18 03:03:00,
2013-10-17 20:11:00,50.0,35.0,-100.00,NNE,25,3.0,4.0,57,0.00,,,0.00,0.000000,,2013-10-18 03:11:00,
2013-10-17 20:22:00,50.0,35.0,-100.00,NNE,25,3.0,4.0,57,0.00,,,0.00,0.000000,,2013-10-18 03:22:00,
2013-10-17 20:55:00,48.0,35.0,-100.00,NE,39,4.0,6.0,60,0.00,,,0.00,0.000000,,2013-10-18 03:55:00,
2013-10-17 21:05:00,48.0,35.0,-100.00,NE,39,4.0,6.0,60,0.00,,,0.00,0.000000,,2013-10-18 04:05:00,
2013-10-17 21:14:00,48.0,35.0,-100.00,NE,39,4.0,6.0,60,0.00,,,0.00,0.000000,,2013-10-18 04:14:00,
2013-10-17 21:24:00,48.0,35.0,-100.00,NE,39,4.0,6.0,60,0.00,,,0.00,0.000000,,2013-10-18 04:24:00,
2013-10-17 21:53:00,44.0,34.0,-100.00,NNE,29,4.0,6.0,69,0.00,,,0.00,0.000000,,2013-10-18 04:53:00,
2013-10-17 22:03:00,44.0,34.0,-100.00,NNE,29,4.0,6.0,69,0.00,,,0.00,0.000000,,2013-10-18 05:03:00,
2013-10-17 22:12:00,44.0,34.0,-100.00,NNE,29,4.0,6.0,69,0.00,,,0.00,0.000000,,2013-10-18 05:12:00,
2013-10-17 22:22:00,44.0,34.0,-100.00,NNE,29,4.0,6.0,69,0.00,,,0.00,0.000000,,2013-10-18 05:22:00,
2013-10-17 23:12:00,45.0,35.0,-100.00,NNE,21,5.0,7.0,69,0.00,,,0.00,0.000000,,2013-10-18 06:12:00,
2013-10-17 23:21:00,45.0,35.0,-100.00,NNE,21,5.0,7.0,69,0.00,,,0.00,0.000000,,2013-10-18 06:21:00,
2013-10-17 23:52:00,42.0,34.0,-100.00,NE,46,5.0,6.0,72,0.00,,,0.00,0.000000,,2013-10-18 06:52:00,